Time;durP1;ratioP1;P1;durP2;ratioP2;P2;SDS_P1;SDS_P2;PMS_P1;PMS_P2;Temp;Humidity;BMP_temperature;BMP_pressure;BME280_temperature;BME280_humidity;BME280_pressure;Samples;Min_cycle;Max_cycle;Signal;HPM_P1;HPM_P2
2024/02/21 00:01:16;;;;;;;17.43;3.43;;;10.20;99.90;;;;;;5040497;28;37390;-79
2024/02/21 00:03:42;;;;;;;15.40;3.87;;;10.30;99.90;;;;;;5044101;28;37324;-79
2024/02/21 00:06:08;;;;;;;10.70;3.07;;;10.20;99.90;;;;;;5041785;28;37006;-79
2024/02/21 00:08:34;;;;;;;18.30;4.13;;;10.20;99.90;;;;;;5042455;28;37726;-78
2024/02/21 00:11:00;;;;;;;14.97;3.33;;;10.20;99.90;;;;;;5042315;28;38056;-78
2024/02/21 00:13:26;;;;;;;16.20;3.27;;;10.20;99.90;;;;;;5041589;28;37093;-79
2024/02/21 00:15:52;;;;;;;20.87;3.77;;;10.20;99.90;;;;;;5041892;28;36784;-78
2024/02/21 00:18:18;;;;;;;20.37;3.67;;;10.20;99.90;;;;;;5043413;28;38537;-78
2024/02/21 00:20:45;;;;;;;15.37;3.83;;;10.20;99.90;;;;;;5039887;28;38583;-79
2024/02/21 00:23:11;;;;;;;13.17;3.80;;;10.20;99.90;;;;;;5043875;28;38468;-79
2024/02/21 00:25:37;;;;;;;22.53;4.03;;;10.20;99.90;;;;;;5051657;28;36087;-79
2024/02/21 00:28:07;;;;;;;18.10;3.57;;;10.20;99.90;;;;;;5043244;28;37715;-79
2024/02/21 00:30:33;;;;;;;20.10;4.67;;;10.30;99.90;;;;;;5041958;28;38773;-78
2024/02/21 00:33:01;;;;;;;23.13;3.97;;;10.30;99.90;;;;;;5062773;28;37054;-79
2024/02/21 00:35:27;;;;;;;17.00;3.43;;;10.30;99.90;;;;;;5038477;28;47183;-79
2024/02/21 00:37:53;;;;;;;20.67;3.83;;;10.30;99.90;;;;;;5040072;28;39016;-79
2024/02/21 00:40:21;;;;;;;12.97;4.27;;;10.30;99.90;;;;;;5042012;28;38137;-79
2024/02/21 00:42:47;;;;;;;16.93;3.23;;;10.30;99.90;;;;;;5043001;28;36590;-79
2024/02/21 00:45:13;;;;;;;15.27;3.53;;;10.30;99.90;;;;;;5040132;28;35206;-79
2024/02/21 00:47:40;;;;;;;16.10;3.57;;;10.30;99.90;;;;;;5042288;28;38133;-79
2024/02/21 00:50:07;;;;;;;17.83;4.30;;;10.30;99.90;;;;;;5048063;28;38849;-80
2024/02/21 00:52:33;;;;;;;18.23;4.53;;;10.30;99.90;;;;;;5053916;28;37069;-79
2024/02/21 00:54:59;;;;;;;20.97;4.20;;;10.30;99.90;;;;;;5048165;28;37400;-80
2024/02/21 00:57:26;;;;;;;17.57;4.63;;;10.30;99.90;;;;;;5046185;28;38570;-79
2024/02/21 00:59:52;;;;;;;16.37;4.37;;;10.30;99.90;;;;;;5047054;28;38714;-78
2024/02/21 01:02:18;;;;;;;19.00;4.47;;;10.30;99.90;;;;;;5047272;28;39207;-78
2024/02/21 01:04:44;;;;;;;16.13;4.37;;;10.30;99.90;;;;;;5047473;28;37654;-78
2024/02/21 01:07:10;;;;;;;16.63;4.70;;;10.20;99.90;;;;;;5044106;28;39272;-78
2024/02/21 01:09:37;;;;;;;22.60;4.13;;;10.30;99.90;;;;;;5043334;28;38837;-79
2024/02/21 01:12:03;;;;;;;16.40;4.20;;;10.20;99.90;;;;;;5044504;28;39050;-79
2024/02/21 01:14:29;;;;;;;13.30;4.30;;;10.20;99.90;;;;;;5040939;28;36270;-79
2024/02/21 01:16:55;;;;;;;15.27;3.57;;;10.20;99.90;;;;;;5048533;28;38531;-78
2024/02/21 01:19:21;;;;;;;11.43;3.23;;;10.20;99.90;;;;;;5045162;28;37299;-79
2024/02/21 01:21:47;;;;;;;15.07;4.33;;;10.20;99.90;;;;;;5044735;28;38441;-80
2024/02/21 01:24:14;;;;;;;17.20;4.77;;;10.20;99.90;;;;;;5042052;28;37216;-79
2024/02/21 01:26:41;;;;;;;23.53;3.87;;;10.20;99.90;;;;;;5040293;28;39303;-78
2024/02/21 01:29:07;;;;;;;21.23;4.33;;;10.20;99.90;;;;;;5043560;28;38059;-79
2024/02/21 01:31:33;;;;;;;15.13;3.43;;;10.20;99.90;;;;;;5042757;28;37614;-78
2024/02/21 01:33:59;;;;;;;17.73;3.80;;;10.20;99.90;;;;;;5043592;28;36945;-79
2024/02/21 01:36:25;;;;;;;12.47;3.80;;;10.20;99.90;;;;;;5043169;28;37781;-78
2024/02/21 01:38:51;;;;;;;13.53;4.10;;;10.20;99.90;;;;;;5043474;28;38752;-78
2024/02/21 01:41:17;;;;;;;15.73;4.07;;;10.20;99.90;;;;;;5043318;28;38321;-78
2024/02/21 01:43:43;;;;;;;17.30;4.03;;;10.20;99.90;;;;;;5041053;28;36117;-78
2024/02/21 01:46:09;;;;;;;15.27;4.77;;;10.20;99.90;;;;;;5048741;28;38187;-78
2024/02/21 01:48:36;;;;;;;10.67;3.70;;;10.20;99.90;;;;;;5057315;28;37466;-78
2024/02/21 01:51:04;;;;;;;16.57;3.90;;;10.20;99.90;;;;;;5040988;28;35171;-79
2024/02/21 01:53:36;;;;;;;18.97;4.20;;;10.20;99.90;;;;;;5043160;28;37079;-79
2024/02/21 01:56:05;;;;;;;14.40;4.45;;;10.20;99.90;;;;;;5038586;28;37677;-79
2024/02/21 01:58:32;;;;;;;12.00;3.60;;;10.20;99.90;;;;;;5044145;28;38326;-78
2024/02/21 02:03:34;;;;;;;12.50;3.63;;;10.20;99.90;;;;;;5182005;22;20049;-84
2024/02/21 02:06:01;;;;;;;20.33;3.87;;;10.20;99.90;;;;;;5022607;28;39243;-82
2024/02/21 02:08:27;;;;;;;16.83;4.90;;;10.20;99.90;;;;;;5040260;28;47137;-85
2024/02/21 02:10:54;;;;;;;14.83;3.97;;;10.20;99.90;;;;;;5028963;28;39548;-83
2024/02/21 02:13:20;;;;;;;16.60;4.10;;;10.10;99.90;;;;;;5037781;28;36276;-81
2024/02/21 02:15:48;;;;;;;11.03;3.07;;;10.10;99.90;;;;;;5040857;28;39194;-83
2024/02/21 02:18:15;;;;;;;15.30;3.50;;;10.10;99.90;;;;;;5020437;28;38761;-81
2024/02/21 02:20:44;;;;;;;14.47;3.50;;;10.10;99.90;;;;;;5038268;28;37193;-83
2024/02/21 02:23:17;;;;;;;10.00;3.60;;;10.10;99.90;;;;;;5036461;28;36976;-83
2024/02/21 02:25:44;;;;;;;14.47;4.07;;;10.10;99.90;;;;;;5019936;28;39532;-83
2024/02/21 02:28:13;;;;;;;13.93;3.60;;;10.10;99.90;;;;;;5023022;28;39340;-83
2024/02/21 02:30:39;;;;;;;16.33;4.77;;;10.10;99.90;;;;;;5039737;28;38631;-83
2024/02/21 02:33:05;;;;;;;11.67;3.63;;;10.10;99.90;;;;;;5038218;28;38199;-83
2024/02/21 02:35:32;;;;;;;14.53;4.67;;;10.10;99.90;;;;;;5041005;28;37640;-83
2024/02/21 02:37:59;;;;;;;9.63;3.43;;;10.10;99.90;;;;;;5023719;28;37083;-84
2024/02/21 02:40:26;;;;;;;12.57;4.20;;;10.10;99.90;;;;;;5030193;28;37572;-84
2024/02/21 02:42:54;;;;;;;14.73;4.00;;;10.10;99.90;;;;;;5037792;28;37842;-82
2024/02/21 02:45:26;;;;;;;13.47;4.37;;;10.10;99.90;;;;;;5037204;28;37674;-83
2024/02/21 02:47:54;;;;;;;13.97;4.30;;;10.10;99.90;;;;;;5031235;28;37366;-83
2024/02/21 02:50:23;;;;;;;11.20;3.40;;;10.10;99.90;;;;;;5036995;28;38420;-84
2024/02/21 02:52:50;;;;;;;13.37;3.70;;;10.10;99.90;;;;;;5031526;28;39019;-83
2024/02/21 02:55:16;;;;;;;11.40;3.77;;;10.00;99.90;;;;;;5020517;28;37821;-84
2024/02/21 02:57:43;;;;;;;16.57;3.87;;;10.10;99.90;;;;;;5047654;28;38331;-83
2024/02/21 03:00:11;;;;;;;11.80;4.30;;;10.10;99.90;;;;;;5041883;28;37905;-83
2024/02/21 03:02:52;;;;;;;12.00;3.73;;;10.00;99.90;;;;;;5045693;28;36293;-82
2024/02/21 03:05:20;;;;;;;16.10;3.70;;;10.00;99.90;;;;;;5029744;28;38980;-83
2024/02/21 03:07:47;;;;;;;12.13;4.23;;;10.00;99.90;;;;;;5046282;28;39176;-82
2024/02/21 03:10:16;;;;;;;17.37;4.27;;;10.00;99.90;;;;;;5024484;28;37079;-82
2024/02/21 03:12:42;;;;;;;11.57;4.37;;;10.00;99.90;;;;;;5022778;28;36075;-83
2024/02/21 03:15:09;;;;;;;14.80;4.83;;;10.00;99.90;;;;;;5039574;28;39293;-83
2024/02/21 03:17:35;;;;;;;11.17;4.60;;;10.00;99.90;;;;;;5022163;28;37956;-83
2024/02/21 03:20:05;;;;;;;12.87;4.67;;;10.00;99.90;;;;;;5028304;28;37889;-82
2024/02/21 03:22:34;;;;;;;13.20;5.20;;;9.90;99.90;;;;;;5026755;28;47195;-83
2024/02/21 03:25:00;;;;;;;13.80;5.23;;;9.90;99.90;;;;;;5020161;28;37891;-83
2024/02/21 03:27:27;;;;;;;13.27;5.30;;;9.90;99.90;;;;;;5020717;28;37255;-83
2024/02/21 03:29:53;;;;;;;11.70;5.17;;;9.90;99.90;;;;;;5036020;28;37232;-83
2024/02/21 03:32:19;;;;;;;11.40;4.70;;;10.00;99.90;;;;;;5024767;28;36583;-83
2024/02/21 03:34:46;;;;;;;9.80;4.73;;;10.00;99.90;;;;;;5042734;28;38400;-82
2024/02/21 03:37:13;;;;;;;11.57;4.87;;;10.00;99.90;;;;;;5025589;28;38267;-81
2024/02/21 03:39:40;;;;;;;13.10;5.77;;;9.90;99.90;;;;;;5046049;28;39045;-84
2024/02/21 03:42:06;;;;;;;13.10;5.50;;;9.90;99.90;;;;;;5026353;28;37124;-80
2024/02/21 03:44:33;;;;;;;8.63;4.93;;;9.90;99.90;;;;;;5045231;28;36266;-82
2024/02/21 03:47:00;;;;;;;9.63;5.50;;;9.90;99.90;;;;;;5039635;28;37344;-83
2024/02/21 03:49:26;;;;;;;13.17;5.93;;;9.90;99.90;;;;;;5043631;28;37076;-84
2024/02/21 03:51:53;;;;;;;14.17;6.03;;;9.90;99.90;;;;;;5049201;28;35311;-83
2024/02/21 03:54:19;;;;;;;9.13;5.33;;;9.90;99.90;;;;;;5027216;28;40547;-83
2024/02/21 03:56:47;;;;;;;13.20;6.07;;;9.90;99.90;;;;;;5046250;28;38502;-81
2024/02/21 03:59:14;;;;;;;12.20;5.63;;;9.90;99.90;;;;;;5043156;28;37274;-83
2024/02/21 04:01:40;;;;;;;10.00;5.63;;;9.90;99.90;;;;;;5038866;28;38733;-83
2024/02/21 04:04:06;;;;;;;14.20;6.57;;;9.90;99.90;;;;;;5041396;28;38525;-82
2024/02/21 04:06:32;;;;;;;12.40;5.93;;;9.90;99.90;;;;;;5048886;28;38326;-83
2024/02/21 04:08:59;;;;;;;11.10;5.07;;;10.00;99.90;;;;;;5039942;28;39757;-82
2024/02/21 04:11:25;;;;;;;11.23;5.47;;;10.00;99.90;;;;;;5046474;28;37115;-81
2024/02/21 04:13:51;;;;;;;11.00;5.80;;;9.90;99.90;;;;;;5050510;28;39609;-81
2024/02/21 04:16:17;;;;;;;12.73;5.80;;;9.90;99.90;;;;;;5037355;28;37489;-82
2024/02/21 04:18:44;;;;;;;12.57;6.10;;;9.90;99.90;;;;;;5028153;28;38599;-81
2024/02/21 04:21:13;;;;;;;6.80;4.80;;;9.90;99.90;;;;;;5037768;28;38459;-83
2024/02/21 04:23:40;;;;;;;13.50;5.93;;;9.90;99.90;;;;;;5041154;28;39888;-84
2024/02/21 04:26:06;;;;;;;10.67;6.00;;;9.90;99.90;;;;;;5037236;28;39580;-84
2024/02/21 04:28:32;;;;;;;15.07;6.60;;;9.90;99.90;;;;;;5040516;28;37916;-83
2024/02/21 04:30:58;;;;;;;9.70;6.13;;;9.90;99.90;;;;;;5043680;28;35569;-83
2024/02/21 04:33:24;;;;;;;13.60;6.07;;;9.90;99.90;;;;;;5030503;28;39273;-82
2024/02/21 04:35:51;;;;;;;12.03;6.10;;;9.90;99.90;;;;;;5026821;28;37081;-82
2024/02/21 04:38:17;;;;;;;16.83;6.40;;;9.90;99.90;;;;;;5038699;28;39262;-82
2024/02/21 04:40:44;;;;;;;16.70;6.30;;;9.90;99.90;;;;;;5038810;28;36933;-83
2024/02/21 04:43:10;;;;;;;19.77;6.80;;;9.90;99.90;;;;;;5037871;28;38136;-82
2024/02/21 04:45:36;;;;;;;15.13;7.10;;;9.80;99.90;;;;;;5044151;28;37201;-83
2024/02/21 04:48:03;;;;;;;11.83;6.53;;;9.80;99.90;;;;;;5025018;28;38732;-84
2024/02/21 04:50:29;;;;;;;18.50;7.27;;;9.80;99.90;;;;;;5044039;28;37384;-83
2024/02/21 04:52:55;;;;;;;13.70;7.47;;;9.80;99.90;;;;;;5025712;28;38653;-83
2024/02/21 04:55:21;;;;;;;14.63;6.50;;;9.80;99.90;;;;;;5040608;28;38544;-84
2024/02/21 04:57:47;;;;;;;9.77;7.23;;;9.80;99.90;;;;;;5020615;28;38242;-83
2024/02/21 05:00:14;;;;;;;14.40;7.03;;;9.80;99.90;;;;;;5026839;28;36355;-83
2024/02/21 05:02:40;;;;;;;9.93;7.17;;;9.80;99.90;;;;;;5042660;28;38771;-83
2024/02/21 05:05:07;;;;;;;13.73;7.50;;;9.80;99.90;;;;;;5042016;28;38197;-83
2024/02/21 05:07:35;;;;;;;13.77;7.93;;;9.80;99.90;;;;;;5028189;28;36870;-83
2024/02/21 05:10:01;;;;;;;17.67;9.70;;;9.80;99.90;;;;;;5025760;28;39695;-83
2024/02/21 05:12:27;;;;;;;22.60;10.87;;;9.70;99.90;;;;;;5037056;28;40725;-83
2024/02/21 05:14:53;;;;;;;19.83;11.20;;;9.70;99.90;;;;;;5040999;28;37310;-83
2024/02/21 05:17:19;;;;;;;21.93;12.37;;;9.70;99.90;;;;;;5027754;28;39900;-85
2024/02/21 05:19:45;;;;;;;17.83;11.23;;;9.70;99.90;;;;;;5025905;28;38187;-84
2024/02/21 05:22:12;;;;;;;23.30;12.43;;;9.70;99.90;;;;;;5038159;28;39055;-83
2024/02/21 05:24:39;;;;;;;21.27;12.83;;;9.70;99.90;;;;;;5038610;28;38764;-84
2024/02/21 05:27:05;;;;;;;24.10;11.87;;;9.70;99.90;;;;;;5036409;28;36870;-84
2024/02/21 05:29:34;;;;;;;19.67;11.47;;;9.60;99.90;;;;;;5024629;28;20048;-83
2024/02/21 05:32:00;;;;;;;22.77;12.33;;;9.70;99.90;;;;;;5019627;28;39784;-84
2024/02/21 05:34:26;;;;;;;20.97;12.50;;;9.70;99.90;;;;;;5024001;28;40298;-84
2024/02/21 05:36:53;;;;;;;24.73;11.90;;;9.70;99.90;;;;;;5037690;28;39729;-83
2024/02/21 05:39:19;;;;;;;18.83;11.57;;;9.70;99.90;;;;;;5039437;28;37614;-83
2024/02/21 05:41:45;;;;;;;19.20;10.20;;;9.70;99.90;;;;;;5022494;28;37647;-84
2024/02/21 05:44:12;;;;;;;17.83;10.60;;;9.70;99.90;;;;;;5040092;28;38411;-83
2024/02/21 05:46:38;;;;;;;22.57;10.93;;;9.70;99.90;;;;;;5039291;28;39225;-82
2024/02/21 05:49:04;;;;;;;25.23;12.00;;;9.70;99.90;;;;;;5039281;28;36611;-84
2024/02/21 05:51:34;;;;;;;24.40;11.60;;;9.70;99.90;;;;;;5026739;28;37940;-82
2024/02/21 05:54:01;;;;;;;24.40;10.80;;;9.70;99.90;;;;;;5028776;28;38791;-83
2024/02/21 05:56:28;;;;;;;23.03;10.47;;;9.70;99.90;;;;;;5032143;28;46851;-82
2024/02/21 05:58:54;;;;;;;23.07;11.00;;;9.60;99.90;;;;;;5038706;28;37271;-84
2024/02/21 06:01:24;;;;;;;25.07;10.63;;;9.60;99.90;;;;;;5036713;28;40621;-84
2024/02/21 06:03:50;;;;;;;23.67;10.50;;;9.60;99.90;;;;;;5017382;28;40173;-83
2024/02/21 06:06:16;;;;;;;27.17;11.60;;;9.60;99.90;;;;;;5017030;28;37266;-83
2024/02/21 06:08:43;;;;;;;23.17;10.87;;;9.50;99.90;;;;;;5022659;28;36455;-83
2024/02/21 06:11:09;;;;;;;24.23;10.87;;;9.60;99.90;;;;;;5036754;28;40064;-83
2024/02/21 06:13:42;;;;;;;23.10;12.27;;;9.50;99.90;;;;;;5021044;28;40034;-82
2024/02/21 06:16:08;;;;;;;25.27;10.67;;;9.50;99.90;;;;;;5040984;28;37747;-86
2024/02/21 06:18:36;;;;;;;25.63;11.33;;;9.50;99.90;;;;;;5026518;28;38883;-87
2024/02/21 06:21:03;;;;;;;30.97;12.23;;;9.50;99.90;;;;;;5021367;28;36462;-87
2024/02/21 06:23:32;;;;;;;26.27;11.97;;;9.50;99.90;;;;;;5038127;28;39763;-87
2024/02/21 06:25:58;;;;;;;29.43;12.50;;;9.50;99.90;;;;;;5037693;28;38408;-86
2024/02/21 06:28:24;;;;;;;35.63;12.17;;;9.50;99.90;;;;;;5024442;28;38087;-87
2024/02/21 06:30:51;;;;;;;27.67;12.30;;;9.40;99.90;;;;;;5040777;28;38111;-86
2024/02/21 06:33:17;;;;;;;22.50;12.07;;;9.40;99.90;;;;;;5028831;28;39268;-87
2024/02/21 06:35:46;;;;;;;26.13;13.40;;;9.40;99.90;;;;;;5028039;28;38964;-87
2024/02/21 06:38:12;;;;;;;30.07;13.67;;;9.40;99.90;;;;;;5032357;28;37757;-85
2024/02/21 06:40:41;;;;;;;28.93;13.10;;;9.40;99.90;;;;;;5022805;28;40543;-86
2024/02/21 06:43:07;;;;;;;35.53;13.37;;;9.40;99.90;;;;;;5047138;28;38256;-87
2024/02/21 06:45:33;;;;;;;26.30;12.27;;;9.40;99.90;;;;;;5046218;28;37189;-86
2024/02/21 06:48:00;;;;;;;26.47;13.83;;;9.30;99.90;;;;;;5045242;28;37901;-86
2024/02/21 06:50:26;;;;;;;25.40;13.50;;;9.40;99.90;;;;;;5049996;28;38182;-85
2024/02/21 06:52:52;;;;;;;33.73;14.27;;;9.30;99.90;;;;;;5028469;28;38582;-85
2024/02/21 06:55:18;;;;;;;27.83;14.60;;;9.30;99.90;;;;;;5043605;28;38795;-87
2024/02/21 06:57:44;;;;;;;31.33;15.00;;;9.30;99.90;;;;;;5048781;28;37554;-86
2024/02/21 07:00:11;;;;;;;32.20;14.17;;;9.30;99.90;;;;;;5025774;28;39876;-85
2024/02/21 07:02:38;;;;;;;29.17;14.23;;;9.30;99.90;;;;;;5045305;28;37932;-85
2024/02/21 07:05:05;;;;;;;29.30;13.80;;;9.40;99.90;;;;;;5045682;28;37944;-85
2024/02/21 07:07:31;;;;;;;32.37;14.60;;;9.40;99.90;;;;;;5025651;28;49218;-85
2024/02/21 07:09:57;;;;;;;36.80;14.33;;;9.40;99.90;;;;;;5028557;28;38748;-85
2024/02/21 07:12:23;;;;;;;33.03;14.47;;;9.30;99.90;;;;;;4999539;28;37291;-84
2024/02/21 07:14:49;;;;;;;30.47;14.43;;;9.30;99.90;;;;;;5033450;28;39431;-84
2024/02/21 07:17:15;;;;;;;30.97;14.40;;;9.20;99.90;;;;;;5020575;28;39131;-85
2024/02/21 07:19:42;;;;;;;34.17;16.00;;;9.20;99.90;;;;;;5018743;28;40235;-85
2024/02/21 07:22:10;;;;;;;31.13;15.77;;;9.20;99.90;;;;;;5020517;28;38825;-84
2024/02/21 07:24:37;;;;;;;31.53;15.87;;;9.20;99.90;;;;;;5038687;28;38324;-85
2024/02/21 07:27:04;;;;;;;36.23;15.43;;;9.20;99.90;;;;;;5022973;28;38598;-85
2024/02/21 07:29:30;;;;;;;32.43;15.23;;;9.20;99.90;;;;;;5020190;28;38689;-84
2024/02/21 07:31:57;;;;;;;40.27;16.83;;;9.20;99.90;;;;;;5021111;28;37351;-83
2024/02/21 07:34:23;;;;;;;31.83;15.50;;;9.20;99.90;;;;;;5024818;28;40373;-86
2024/02/21 07:36:49;;;;;;;33.93;15.83;;;9.10;99.90;;;;;;5027823;28;38319;-84
2024/02/21 07:39:15;;;;;;;32.17;15.43;;;9.10;99.90;;;;;;5057555;28;39491;-85
2024/02/21 07:41:43;;;;;;;40.33;16.47;;;9.10;99.90;;;;;;5043797;28;39525;-85
2024/02/21 07:44:09;;;;;;;30.40;15.93;;;9.10;99.90;;;;;;5028974;28;38508;-83
2024/02/21 07:46:35;;;;;;;31.83;15.77;;;9.10;99.90;;;;;;5020472;28;36207;-84
2024/02/21 07:49:02;;;;;;;31.37;16.67;;;9.10;99.90;;;;;;5020641;28;39872;-83
2024/02/21 07:51:28;;;;;;;32.43;16.60;;;9.10;99.90;;;;;;5019291;28;39176;-84
2024/02/21 07:53:55;;;;;;;31.47;16.40;;;9.10;99.90;;;;;;5017895;28;39520;-85
2024/02/21 07:56:22;;;;;;;34.50;16.03;;;9.20;99.90;;;;;;5032963;28;38352;-84
2024/02/21 07:58:48;;;;;;;30.50;15.37;;;9.20;99.90;;;;;;5016872;28;37931;-85
2024/02/21 08:01:20;;;;;;;33.03;15.57;;;9.20;99.90;;;;;;5015926;28;39120;-84
2024/02/21 08:03:47;;;;;;;27.15;14.43;;;9.20;99.90;;;;;;5037180;28;38699;-84
2024/02/21 08:06:13;;;;;;;34.30;14.93;;;9.20;99.90;;;;;;5036276;28;38460;-87
2024/02/21 08:08:40;;;;;;;29.97;14.40;;;9.20;99.90;;;;;;5022126;28;39140;-85
2024/02/21 08:11:06;;;;;;;26.60;15.33;;;9.20;99.90;;;;;;5038096;28;37412;-87
2024/02/21 08:13:32;;;;;;;30.47;14.83;;;9.30;99.90;;;;;;5027140;28;38079;-86
2024/02/21 08:15:58;;;;;;;26.20;13.77;;;9.30;99.90;;;;;;5043357;28;38170;-85
2024/02/21 08:18:25;;;;;;;30.97;14.67;;;9.30;99.90;;;;;;5040813;28;39592;-83
2024/02/21 08:20:51;;;;;;;30.83;15.13;;;9.30;99.90;;;;;;5020535;28;38532;-84
2024/02/21 08:23:19;;;;;;;27.10;13.97;;;9.30;99.90;;;;;;5000421;28;40335;-85
2024/02/21 08:25:45;;;;;;;26.17;13.80;;;9.30;99.90;;;;;;5019176;28;38489;-85
2024/02/21 08:28:13;;;;;;;26.90;13.93;;;9.30;99.90;;;;;;5018763;28;39729;-84
2024/02/21 08:30:39;;;;;;;26.83;15.30;;;9.30;99.90;;;;;;5036635;28;37894;-84
2024/02/21 08:33:05;;;;;;;28.60;16.13;;;9.30;99.90;;;;;;5037000;28;39505;-85
2024/02/21 08:35:31;;;;;;;25.23;15.37;;;9.30;99.90;;;;;;5039971;28;37164;-85
2024/02/21 08:37:57;;;;;;;30.03;14.97;;;9.40;99.90;;;;;;5041365;28;39704;-86
2024/02/21 08:40:24;;;;;;;27.87;14.17;;;9.40;99.90;;;;;;5036303;28;39079;-85
2024/02/21 08:42:50;;;;;;;24.87;13.70;;;9.40;99.90;;;;;;5015313;28;39698;-84
2024/02/21 08:45:16;;;;;;;29.73;14.50;;;9.40;99.90;;;;;;5020715;28;39122;-86
2024/02/21 08:47:42;;;;;;;24.87;15.40;;;9.40;99.90;;;;;;5031072;28;40485;-85
2024/02/21 08:50:11;;;;;;;21.20;15.17;;;9.40;99.90;;;;;;5036998;28;38534;-85
2024/02/21 08:52:38;;;;;;;26.17;13.90;;;9.40;99.90;;;;;;5036741;28;39441;-85
2024/02/21 08:55:04;;;;;;;35.23;15.23;;;9.50;99.90;;;;;;5034056;28;37660;-84
2024/02/21 08:57:36;;;;;;;29.73;13.40;;;9.50;99.90;;;;;;5038054;28;39836;-86
2024/02/21 09:00:09;;;;;;;21.10;13.13;;;9.50;99.90;;;;;;5037372;28;38381;-83
2024/02/21 09:02:39;;;;;;;27.37;13.10;;;9.50;99.90;;;;;;5039617;28;38465;-84
2024/02/21 09:05:06;;;;;;;22.57;12.63;;;9.60;99.90;;;;;;5019427;28;39715;-85
2024/02/21 09:07:32;;;;;;;21.80;12.93;;;9.50;99.90;;;;;;5017318;28;39863;-84
2024/02/21 09:09:58;;;;;;;20.87;13.50;;;9.60;99.90;;;;;;5041836;28;37844;-83
2024/02/21 09:12:25;;;;;;;21.00;13.30;;;9.60;99.90;;;;;;5041334;28;35630;-84
2024/02/21 09:14:51;;;;;;;22.53;12.87;;;9.70;99.90;;;;;;5028387;28;38035;-85
2024/02/21 09:17:17;;;;;;;21.10;12.17;;;9.70;99.90;;;;;;5045325;28;39571;-86
2024/02/21 09:19:44;;;;;;;24.53;12.47;;;9.70;99.90;;;;;;5030599;28;39377;-87
2024/02/21 09:22:10;;;;;;;17.50;11.40;;;9.70;99.90;;;;;;5029101;28;37008;-86
2024/02/21 09:24:36;;;;;;;21.77;11.60;;;9.70;99.90;;;;;;5030010;28;37573;-85
2024/02/21 09:27:03;;;;;;;17.03;11.23;;;9.70;99.90;;;;;;5025123;28;38726;-83
2024/02/21 09:29:29;;;;;;;20.07;11.30;;;9.80;99.90;;;;;;5037024;28;38314;-83
2024/02/21 09:31:55;;;;;;;17.93;10.50;;;9.80;99.90;;;;;;5018984;28;39742;-83
2024/02/21 09:34:21;;;;;;;19.93;10.13;;;9.90;99.90;;;;;;5034102;28;39943;-83
2024/02/21 09:36:47;;;;;;;23.30;10.77;;;9.90;99.90;;;;;;5036688;28;39549;-84
2024/02/21 09:39:17;;;;;;;15.60;10.27;;;10.00;99.90;;;;;;5029334;28;39023;-83
2024/02/21 09:41:50;;;;;;;19.13;10.57;;;10.00;99.90;;;;;;5021441;28;38291;-84
2024/02/21 09:44:16;;;;;;;;;;;10.00;99.90;;;;;;5032003;28;38851;-83
2024/02/21 09:47:03;;;;;;;18.23;9.80;;;10.00;99.90;;;;;;5037320;28;38550;-83
2024/02/21 09:49:37;;;;;;;16.07;9.90;;;10.10;99.90;;;;;;5013325;28;50425;-83
2024/02/21 09:52:07;;;;;;;15.97;9.80;;;10.10;99.90;;;;;;5032079;28;38058;-83
2024/02/21 09:54:34;;;;;;;16.73;10.10;;;10.10;99.90;;;;;;5018629;28;38067;-84
2024/02/21 09:57:01;;;;;;;11.20;9.07;;;10.10;99.90;;;;;;5007964;28;39505;-83
2024/02/21 09:59:32;;;;;;;15.60;9.03;;;10.10;99.90;;;;;;5030635;28;47107;-83
2024/02/21 10:02:02;;;;;;;14.17;10.00;;;10.10;99.90;;;;;;5038480;28;39792;-85
2024/02/21 10:04:29;;;;;;;15.77;9.10;;;10.00;99.90;;;;;;5034831;28;48671;-84
2024/02/21 10:06:55;;;;;;;18.10;9.03;;;10.10;99.90;;;;;;5033726;28;39001;-84
2024/02/21 10:09:29;;;;;;;13.73;8.73;;;10.10;99.90;;;;;;5031858;28;41345;-85
2024/02/21 10:11:56;;;;;;;11.97;7.77;;;10.10;99.90;;;;;;5020285;28;38686;-85
2024/02/21 10:14:22;;;;;;;13.20;8.57;;;10.10;99.90;;;;;;5032138;28;37322;-84
2024/02/21 10:16:58;;;;;;;13.37;7.87;;;10.10;99.90;;;;;;5037102;28;38336;-83
2024/02/21 10:19:25;;;;;;;10.80;7.70;;;10.20;99.90;;;;;;5015213;28;39401;-83
2024/02/21 10:22:07;;;;;;;10.30;7.67;;;10.30;99.90;;;;;;5035368;28;36978;-84
2024/02/21 10:24:34;;;;;;;9.68;7.28;;;10.20;99.90;;;;;;5037253;28;48291;-85
2024/02/21 10:27:03;;;;;;;11.60;7.03;;;10.20;99.90;;;;;;5013321;28;39573;-83
2024/02/21 10:29:32;;;;;;;10.50;7.13;;;10.30;99.90;;;;;;5028969;28;47262;-84
2024/02/21 10:32:12;;;;;;;14.03;7.27;;;10.30;99.90;;;;;;5015938;28;38576;-83
2024/02/21 10:34:40;;;;;;;10.97;6.80;;;10.20;99.90;;;;;;5032441;28;48035;-85
2024/02/21 10:37:10;;;;;;;9.87;7.93;;;10.20;99.90;;;;;;5035934;28;39989;-83
2024/02/21 10:39:41;;;;;;;12.83;7.97;;;10.20;99.90;;;;;;5039838;28;38268;-84
2024/02/21 10:42:11;;;;;;;12.47;7.87;;;10.20;99.90;;;;;;5020955;28;37423;-83
2024/02/21 10:44:41;;;;;;;15.17;7.93;;;10.20;99.90;;;;;;5022118;28;37101;-84
2024/02/21 10:47:10;;;;;;;11.30;8.00;;;10.20;99.90;;;;;;5008413;28;42644;-86
2024/02/21 10:49:41;;;;;;;12.40;8.27;;;10.20;99.90;;;;;;5016747;28;38824;-84
2024/02/21 10:52:34;;;;;;;14.13;9.23;;;10.20;99.90;;;;;;5034617;28;39368;-83
2024/02/21 10:55:09;;;;;;;12.47;8.37;;;10.30;99.90;;;;;;5030145;28;36451;-83
2024/02/21 10:57:37;;;;;;;21.20;9.60;;;10.30;99.90;;;;;;5037869;28;47366;-85
2024/02/21 11:00:07;;;;;;;16.03;9.10;;;10.30;99.90;;;;;;5037738;28;39475;-82
2024/02/21 11:02:34;;;;;;;15.73;9.43;;;10.40;99.90;;;;;;5036359;28;39035;-83
2024/02/21 11:05:04;;;;;;;18.13;9.50;;;10.50;97.50;;;;;;5020290;28;38040;-84
2024/02/21 11:07:32;;;;;;;14.23;8.70;;;10.50;98.80;;;;;;5034404;28;47178;-84
2024/02/21 11:09:59;;;;;;;17.42;9.45;;;10.50;96.70;;;;;;5019844;28;39160;-82
2024/02/21 11:12:27;;;;;;;17.70;9.32;;;10.50;96.30;;;;;;5018304;28;38030;-83
2024/02/21 11:15:05;;;;;;;13.00;9.23;;;10.50;97.20;;;;;;5041059;28;36956;-84
2024/02/21 11:17:31;;;;;;;14.10;9.13;;;10.50;95.80;;;;;;5037100;28;48678;-84
2024/02/21 11:19:58;;;;;;;11.98;8.70;;;10.60;93.20;;;;;;5032572;28;37860;-82
2024/02/21 11:22:29;;;;;;;17.90;9.40;;;10.60;90.80;;;;;;5037274;28;39757;-83
2024/02/21 11:24:55;;;;;;;13.43;8.68;;;10.60;85.10;;;;;;5034471;28;36242;-84
2024/02/21 11:27:26;;;;;;;14.20;9.00;;;10.70;83.10;;;;;;5023040;28;39021;-83
2024/02/21 11:29:57;;;;;;;14.43;7.80;;;10.70;77.90;;;;;;5040446;28;38348;-85
2024/02/21 11:32:25;;;;;;;14.23;7.73;;;10.70;78.00;;;;;;5035913;28;40765;-84
2024/02/21 11:35:03;;;;;;;12.90;8.52;;;10.70;75.50;;;;;;5037223;28;36102;-83
2024/02/21 11:37:36;;;;;;;12.90;7.97;;;10.80;71.60;;;;;;5035547;28;48444;-82
2024/02/21 11:40:03;;;;;;;12.68;7.90;;;10.80;62.70;;;;;;5038873;28;38177;-83
2024/02/21 11:42:30;;;;;;;12.98;7.70;;;10.70;61.70;;;;;;5020086;28;37250;-83
2024/02/21 11:44:57;;;;;;;15.80;7.75;;;10.80;64.20;;;;;;5039998;28;34885;-85
2024/02/21 11:47:24;;;;;;;15.35;7.90;;;10.80;62.80;;;;;;5029688;28;37527;-83
2024/02/21 11:49:53;;;;;;;14.32;7.75;;;10.80;65.10;;;;;;5053187;28;37060;-83
2024/02/21 11:52:24;;;;;;;15.65;8.00;;;10.90;65.30;;;;;;5050038;28;39216;-84
2024/02/21 11:54:52;;;;;;;12.45;8.00;;;10.90;55.20;;;;;;5034533;28;36172;-81
2024/02/21 11:57:18;;;;;;;13.02;8.45;;;10.80;63.30;;;;;;5032991;28;37606;-84
2024/02/21 11:59:46;;;;;;;15.68;8.82;;;10.70;65.40;;;;;;5036834;28;39712;-85
2024/02/21 12:02:13;;;;;;;13.50;7.63;;;10.70;69.90;;;;;;5033653;28;37858;-83
2024/02/21 12:04:40;;;;;;;12.70;8.23;;;10.70;78.00;;;;;;5036224;28;37210;-83
2024/02/21 12:07:07;;;;;;;17.50;7.80;;;10.70;76.40;;;;;;5038456;28;38062;-85
2024/02/21 12:09:34;;;;;;;11.17;7.80;;;10.70;80.50;;;;;;5045076;28;38937;-85
2024/02/21 12:12:05;;;;;;;10.53;7.77;;;10.60;84.20;;;;;;5025435;28;37154;-84
2024/02/21 12:14:33;;;;;;;14.57;7.90;;;10.60;80.60;;;;;;5047169;28;46598;-84
2024/02/21 12:17:01;;;;;;;13.90;8.37;;;10.50;78.60;;;;;;5026886;28;40537;-85
2024/02/21 12:19:34;;;;;;;14.50;8.47;;;10.50;80.20;;;;;;5030107;28;37836;-84
2024/02/21 12:22:01;;;;;;;13.63;7.83;;;10.50;82.60;;;;;;5023252;28;38287;-85
2024/02/21 12:24:28;;;;;;;14.33;8.07;;;10.40;84.70;;;;;;5041465;28;47399;-85
2024/02/21 12:26:56;;;;;;;14.90;7.30;;;10.40;84.50;;;;;;5049329;28;39344;-84
2024/02/21 12:29:27;;;;;;;12.93;7.23;;;10.50;85.60;;;;;;5030722;28;40533;-84
2024/02/21 12:31:56;;;;;;;10.70;6.83;;;10.40;87.10;;;;;;5030134;28;37149;-85
2024/02/21 12:34:24;;;;;;;12.07;6.70;;;10.40;86.30;;;;;;5027319;28;36010;-84
2024/02/21 12:36:51;;;;;;;12.47;7.33;;;10.40;81.30;;;;;;5038538;28;39033;-83
2024/02/21 12:39:28;;;;;;;15.53;7.00;;;10.50;86.50;;;;;;5034220;28;36870;-81
2024/02/21 12:41:56;;;;;;;11.23;7.80;;;10.40;86.00;;;;;;5012693;28;37950;-84